sensor_id;sensor_type;location;lat;lon;timestamp;temperature;humidity
7540;DHT22;3811;49.006;12.076;2022-08-06T00:05:17;21.90;99.90
7540;DHT22;3811;49.006;12.076;2022-08-06T00:07:44;21.80;99.90
7540;DHT22;3811;49.006;12.076;2022-08-06T00:15:08;21.60;99.90
7540;DHT22;3811;49.006;12.076;2022-08-06T00:20:05;21.30;1.00
7540;DHT22;3811;49.006;12.076;2022-08-06T00:27:26;21.00;99.90
7540;DHT22;3811;49.006;12.076;2022-08-06T00:32:22;20.80;1.00
7540;DHT22;3811;49.006;12.076;2022-08-06T00:34:49;20.80;1.00
7540;DHT22;3811;49.006;12.076;2022-08-06T00:39:44;20.70;54.70
7540;DHT22;3811;49.006;12.076;2022-08-06T00:42:11;20.70;1.00
7540;DHT22;3811;49.006;12.076;2022-08-06T00:47:05;20.50;52.60
7540;DHT22;3811;49.006;12.076;2022-08-06T00:59:23;20.20;1.00
7540;DHT22;3811;49.006;12.076;2022-08-06T01:04:18;20.00;88.60
7540;DHT22;3811;49.006;12.076;2022-08-06T01:06:47;20.10;88.90
7540;DHT22;3811;49.006;12.076;2022-08-06T01:14:08;19.90;71.50
7540;DHT22;3811;49.006;12.076;2022-08-06T01:16:39;19.90;99.90
7540;DHT22;3811;49.006;12.076;2022-08-06T01:19:30;19.80;99.90
7540;DHT22;3811;49.006;12.076;2022-08-06T01:22:13;19.80;99.90
7540;DHT22;3811;49.006;12.076;2022-08-06T01:24:57;19.90;99.90
7540;DHT22;3811;49.006;12.076;2022-08-06T01:27:36;19.80;99.90
7540;DHT22;3811;49.006;12.076;2022-08-06T01:30:06;19.70;44.20
7540;DHT22;3811;49.006;12.076;2022-08-06T01:32:37;19.60;99.90
7540;DHT22;3811;49.006;12.076;2022-08-06T01:35:07;19.40;99.90
7540;DHT22;3811;49.006;12.076;2022-08-06T01:37:38;19.40;99.90
7540;DHT22;3811;49.006;12.076;2022-08-06T01:40:11;19.30;99.90
7540;DHT22;3811;49.006;12.076;2022-08-06T01:42:41;20.40;99.90
7540;DHT22;3811;49.006;12.076;2022-08-06T01:45:13;19.00;99.90
7540;DHT22;3811;49.006;12.076;2022-08-06T01:47:43;18.90;1.00
7540;DHT22;3811;49.006;12.076;2022-08-06T01:50:15;18.70;93.40
7540;DHT22;3811;49.006;12.076;2022-08-06T01:52:43;18.60;1.00
7540;DHT22;3811;49.006;12.076;2022-08-06T01:55:12;18.50;1.00
7540;DHT22;3811;49.006;12.076;2022-08-06T01:57:46;18.30;1.00
7540;DHT22;3811;49.006;12.076;2022-08-06T02:00:15;18.20;1.00
7540;DHT22;3811;49.006;12.076;2022-08-06T02:02:44;18.00;10.60
7540;DHT22;3811;49.006;12.076;2022-08-06T02:05:13;17.90;1.00
7540;DHT22;3811;49.006;12.076;2022-08-06T02:07:46;17.80;22.60
7540;DHT22;3811;49.006;12.076;2022-08-06T02:10:15;17.80;83.90
7540;DHT22;3811;49.006;12.076;2022-08-06T02:12:46;17.70;99.90
7540;DHT22;3811;49.006;12.076;2022-08-06T02:15:18;17.80;1.00
7540;DHT22;3811;49.006;12.076;2022-08-06T02:17:49;17.70;1.00
7540;DHT22;3811;49.006;12.076;2022-08-06T02:20:23;17.70;75.00
7540;DHT22;3811;49.006;12.076;2022-08-06T02:22:52;17.70;1.00
7540;DHT22;3811;49.006;12.076;2022-08-06T02:25:20;17.70;85.90
7540;DHT22;3811;49.006;12.076;2022-08-06T02:27:56;17.50;99.90
7540;DHT22;3811;49.006;12.076;2022-08-06T02:30:25;17.60;1.00
7540;DHT22;3811;49.006;12.076;2022-08-06T02:35:22;17.60;1.00
7540;DHT22;3811;49.006;12.076;2022-08-06T02:37:55;17.50;1.00
7540;DHT22;3811;49.006;12.076;2022-08-06T02:40:27;17.60;1.00
7540;DHT22;3811;49.006;12.076;2022-08-06T02:43:01;17.70;99.20
7540;DHT22;3811;49.006;12.076;2022-08-06T02:45:34;17.80;1.00
7540;DHT22;3811;49.006;12.076;2022-08-06T02:48:09;17.70;1.00
7540;DHT22;3811;49.006;12.076;2022-08-06T02:50:40;17.70;1.00
7540;DHT22;3811;49.006;12.076;2022-08-06T02:53:10;17.60;1.00
7540;DHT22;3811;49.006;12.076;2022-08-06T02:55:41;17.70;1.00
7540;DHT22;3811;49.006;12.076;2022-08-06T02:58:15;17.70;1.00
7540;DHT22;3811;49.006;12.076;2022-08-06T03:00:45;17.60;1.00
7540;DHT22;3811;49.006;12.076;2022-08-06T03:03:15;17.70;1.00
7540;DHT22;3811;49.006;12.076;2022-08-06T03:05:44;17.60;99.90
7540;DHT22;3811;49.006;12.076;2022-08-06T03:08:17;17.60;1.00
7540;DHT22;3811;49.006;12.076;2022-08-06T03:13:14;17.50;1.00
7540;DHT22;3811;49.006;12.076;2022-08-06T03:15:43;17.50;1.00
7540;DHT22;3811;49.006;12.076;2022-08-06T03:18:12;17.50;1.00
7540;DHT22;3811;49.006;12.076;2022-08-06T03:20:42;17.40;1.00
7540;DHT22;3811;49.006;12.076;2022-08-06T03:23:09;17.40;99.90
7540;DHT22;3811;49.006;12.076;2022-08-06T03:25:39;17.40;1.00
7540;DHT22;3811;49.006;12.076;2022-08-06T03:28:07;17.40;99.90
7540;DHT22;3811;49.006;12.076;2022-08-06T03:30:36;17.40;99.90
7540;DHT22;3811;49.006;12.076;2022-08-06T03:33:07;17.40;99.90
7540;DHT22;3811;49.006;12.076;2022-08-06T03:35:36;17.40;99.90
7540;DHT22;3811;49.006;12.076;2022-08-06T03:38:03;17.30;1.00
7540;DHT22;3811;49.006;12.076;2022-08-06T03:40:34;17.30;1.00
7540;DHT22;3811;49.006;12.076;2022-08-06T03:43:03;17.40;1.00
7540;DHT22;3811;49.006;12.076;2022-08-06T03:45:31;17.20;1.00
7540;DHT22;3811;49.006;12.076;2022-08-06T03:48:05;17.20;1.00
7540;DHT22;3811;49.006;12.076;2022-08-06T03:50:36;17.20;1.00
7540;DHT22;3811;49.006;12.076;2022-08-06T03:53:07;17.20;99.90
7540;DHT22;3811;49.006;12.076;2022-08-06T03:55:36;17.20;1.00
7540;DHT22;3811;49.006;12.076;2022-08-06T03:58:07;17.20;1.00
7540;DHT22;3811;49.006;12.076;2022-08-06T04:00:40;17.20;1.00
7540;DHT22;3811;49.006;12.076;2022-08-06T04:03:10;17.10;1.00
7540;DHT22;3811;49.006;12.076;2022-08-06T04:05:40;17.20;1.00
7540;DHT22;3811;49.006;12.076;2022-08-06T04:08:09;17.00;1.00
7540;DHT22;3811;49.006;12.076;2022-08-06T04:10:39;17.10;1.00
7540;DHT22;3811;49.006;12.076;2022-08-06T04:13:08;17.10;99.90
7540;DHT22;3811;49.006;12.076;2022-08-06T04:15:37;17.10;99.90
7540;DHT22;3811;49.006;12.076;2022-08-06T04:18:07;17.00;99.90
7540;DHT22;3811;49.006;12.076;2022-08-06T04:20:38;17.00;99.90
7540;DHT22;3811;49.006;12.076;2022-08-06T04:23:06;16.90;99.90
7540;DHT22;3811;49.006;12.076;2022-08-06T04:25:38;16.90;99.90
7540;DHT22;3811;49.006;12.076;2022-08-06T04:28:06;17.00;1.00
7540;DHT22;3811;49.006;12.076;2022-08-06T04:30:34;17.10;99.90
7540;DHT22;3811;49.006;12.076;2022-08-06T04:33:02;17.10;99.90
7540;DHT22;3811;49.006;12.076;2022-08-06T04:38:00;16.80;25.00
7540;DHT22;3811;49.006;12.076;2022-08-06T04:40:33;16.90;27.70
7540;DHT22;3811;49.006;12.076;2022-08-06T04:47:57;16.40;90.30
7540;DHT22;3811;49.006;12.076;2022-08-06T04:50:25;16.40;1.00
7540;DHT22;3811;49.006;12.076;2022-08-06T05:05:13;16.30;1.00
7540;DHT22;3811;49.006;12.076;2022-08-06T05:07:41;16.40;1.00
7540;DHT22;3811;49.006;12.076;2022-08-06T05:12:44;16.40;99.90
7540;DHT22;3811;49.006;12.076;2022-08-06T05:15:18;16.50;1.00
7540;DHT22;3811;49.006;12.076;2022-08-06T05:17:49;16.40;99.90
7540;DHT22;3811;49.006;12.076;2022-08-06T05:20:20;16.50;99.90
7540;DHT22;3811;49.006;12.076;2022-08-06T05:22:50;16.50;99.90
7540;DHT22;3811;49.006;12.076;2022-08-06T05:25:19;16.50;99.90
7540;DHT22;3811;49.006;12.076;2022-08-06T05:32:43;16.50;99.90
7540;DHT22;3811;49.006;12.076;2022-08-06T05:40:07;16.50;99.90
7540;DHT22;3811;49.006;12.076;2022-08-06T05:42:34;16.50;99.90
7540;DHT22;3811;49.006;12.076;2022-08-06T05:45:03;16.50;79.90
7540;DHT22;3811;49.006;12.076;2022-08-06T05:47:35;16.60;99.90
7540;DHT22;3811;49.006;12.076;2022-08-06T05:50:06;16.60;99.90
7540;DHT22;3811;49.006;12.076;2022-08-06T05:52:37;16.70;99.90
7540;DHT22;3811;49.006;12.076;2022-08-06T05:55:13;16.70;1.00
7540;DHT22;3811;49.006;12.076;2022-08-06T05:57:46;16.70;23.90
7540;DHT22;3811;49.006;12.076;2022-08-06T06:00:18;16.70;1.00
7540;DHT22;3811;49.006;12.076;2022-08-06T06:02:48;16.70;99.90
7540;DHT22;3811;49.006;12.076;2022-08-06T06:05:18;16.70;53.90
7540;DHT22;3811;49.006;12.076;2022-08-06T06:10:14;16.70;1.00
7540;DHT22;3811;49.006;12.076;2022-08-06T06:12:42;16.80;99.90
7540;DHT22;3811;49.006;12.076;2022-08-06T06:15:12;16.80;99.90
7540;DHT22;3811;49.006;12.076;2022-08-06T06:18:09;16.80;1.00
7540;DHT22;3811;49.006;12.076;2022-08-06T06:20:56;16.90;1.00
7540;DHT22;3811;49.006;12.076;2022-08-06T06:23:28;17.00;59.90
7540;DHT22;3811;49.006;12.076;2022-08-06T06:26:02;17.00;1.00
7540;DHT22;3811;49.006;12.076;2022-08-06T06:28:33;17.10;1.00
7540;DHT22;3811;49.006;12.076;2022-08-06T06:31:06;17.10;1.00
7540;DHT22;3811;49.006;12.076;2022-08-06T06:33:44;17.20;99.90
7540;DHT22;3811;49.006;12.076;2022-08-06T06:36:23;17.20;1.00
7540;DHT22;3811;49.006;12.076;2022-08-06T06:38:57;17.20;99.90
7540;DHT22;3811;49.006;12.076;2022-08-06T06:41:32;17.20;99.90
7540;DHT22;3811;49.006;12.076;2022-08-06T06:44:07;17.20;15.00
7540;DHT22;3811;49.006;12.076;2022-08-06T06:46:39;17.30;1.00
7540;DHT22;3811;49.006;12.076;2022-08-06T06:49:15;17.30;1.00
7540;DHT22;3811;49.006;12.076;2022-08-06T06:51:46;17.40;1.00
7540;DHT22;3811;49.006;12.076;2022-08-06T06:54:19;17.40;1.00
7540;DHT22;3811;49.006;12.076;2022-08-06T06:56:50;17.40;1.00
7540;DHT22;3811;49.006;12.076;2022-08-06T06:59:21;17.60;99.90
7540;DHT22;3811;49.006;12.076;2022-08-06T07:01:51;17.60;1.00
7540;DHT22;3811;49.006;12.076;2022-08-06T07:04:22;17.80;10.60
7540;DHT22;3811;49.006;12.076;2022-08-06T07:06:51;17.80;99.90
7540;DHT22;3811;49.006;12.076;2022-08-06T07:09:22;18.00;99.90
7540;DHT22;3811;49.006;12.076;2022-08-06T07:11:51;18.10;21.10
7540;DHT22;3811;49.006;12.076;2022-08-06T07:14:20;18.10;1.00
7540;DHT22;3811;49.006;12.076;2022-08-06T07:16:48;18.10;1.00
7540;DHT22;3811;49.006;12.076;2022-08-06T07:19:19;18.20;99.90
7540;DHT22;3811;49.006;12.076;2022-08-06T07:21:48;18.20;40.80
7540;DHT22;3811;49.006;12.076;2022-08-06T07:24:17;18.10;99.90
7540;DHT22;3811;49.006;12.076;2022-08-06T07:26:45;18.10;36.30
7540;DHT22;3811;49.006;12.076;2022-08-06T07:29:14;18.10;99.90
7540;DHT22;3811;49.006;12.076;2022-08-06T07:31:42;18.10;99.90
7540;DHT22;3811;49.006;12.076;2022-08-06T07:36:42;18.10;37.50
7540;DHT22;3811;49.006;12.076;2022-08-06T07:39:15;18.10;1.00
7540;DHT22;3811;49.006;12.076;2022-08-06T07:41:43;18.00;1.00
7540;DHT22;3811;49.006;12.076;2022-08-06T07:44:13;18.00;1.00
7540;DHT22;3811;49.006;12.076;2022-08-06T07:46:43;17.90;99.90
7540;DHT22;3811;49.006;12.076;2022-08-06T07:49:14;17.90;1.00
7540;DHT22;3811;49.006;12.076;2022-08-06T07:51:45;17.90;99.90
7540;DHT22;3811;49.006;12.076;2022-08-06T07:54:14;17.90;99.90
7540;DHT22;3811;49.006;12.076;2022-08-06T07:56:52;17.90;1.00
7540;DHT22;3811;49.006;12.076;2022-08-06T08:01:47;17.90;99.90
7540;DHT22;3811;49.006;12.076;2022-08-06T08:04:15;18.00;1.00
7540;DHT22;3811;49.006;12.076;2022-08-06T08:07:02;18.00;1.00
7540;DHT22;3811;49.006;12.076;2022-08-06T08:09:31;17.90;1.00
7540;DHT22;3811;49.006;12.076;2022-08-06T08:11:59;17.80;1.00
7540;DHT22;3811;49.006;12.076;2022-08-06T08:14:26;17.80;1.00
7540;DHT22;3811;49.006;12.076;2022-08-06T08:17:11;17.80;1.00
7540;DHT22;3811;49.006;12.076;2022-08-06T08:19:38;17.90;1.00
7540;DHT22;3811;49.006;12.076;2022-08-06T08:22:10;17.80;1.00
7540;DHT22;3811;49.006;12.076;2022-08-06T08:24:38;17.80;1.00
7540;DHT22;3811;49.006;12.076;2022-08-06T08:27:07;17.80;1.00
7540;DHT22;3811;49.006;12.076;2022-08-06T08:29:37;17.80;1.00
7540;DHT22;3811;49.006;12.076;2022-08-06T08:32:05;17.80;1.00
7540;DHT22;3811;49.006;12.076;2022-08-06T08:39:30;18.00;1.00
7540;DHT22;3811;49.006;12.076;2022-08-06T08:42:02;18.10;1.00
7540;DHT22;3811;49.006;12.076;2022-08-06T08:44:33;18.20;1.00
7540;DHT22;3811;49.006;12.076;2022-08-06T08:47:01;18.10;1.00
7540;DHT22;3811;49.006;12.076;2022-08-06T08:49:35;18.10;1.00
7540;DHT22;3811;49.006;12.076;2022-08-06T08:52:04;18.10;1.00
7540;DHT22;3811;49.006;12.076;2022-08-06T08:54:35;18.10;1.00
7540;DHT22;3811;49.006;12.076;2022-08-06T08:57:03;18.10;1.00
7540;DHT22;3811;49.006;12.076;2022-08-06T09:01:58;18.20;1.00
7540;DHT22;3811;49.006;12.076;2022-08-06T09:04:26;18.10;1.00
7540;DHT22;3811;49.006;12.076;2022-08-06T09:06:56;17.90;99.90
7540;DHT22;3811;49.006;12.076;2022-08-06T09:09:23;17.80;1.00
7540;DHT22;3811;49.006;12.076;2022-08-06T09:19:20;17.90;1.00
7540;DHT22;3811;49.006;12.076;2022-08-06T09:22:13;17.90;1.00
7540;DHT22;3811;49.006;12.076;2022-08-06T09:24:40;17.90;18.50
7540;DHT22;3811;49.006;12.076;2022-08-06T09:27:10;17.90;39.30
7540;DHT22;3811;49.006;12.076;2022-08-06T09:29:48;18.00;1.00
7540;DHT22;3811;49.006;12.076;2022-08-06T09:32:40;18.10;99.90
7540;DHT22;3811;49.006;12.076;2022-08-06T09:35:18;18.10;1.00
7540;DHT22;3811;49.006;12.076;2022-08-06T09:37:46;18.20;1.00
7540;DHT22;3811;49.006;12.076;2022-08-06T09:40:15;18.20;1.00
7540;DHT22;3811;49.006;12.076;2022-08-06T09:42:46;18.40;1.00
7540;DHT22;3811;49.006;12.076;2022-08-06T09:45:18;18.60;1.00
7540;DHT22;3811;49.006;12.076;2022-08-06T09:47:46;18.70;1.00
7540;DHT22;3811;49.006;12.076;2022-08-06T09:50:35;18.70;1.00
7540;DHT22;3811;49.006;12.076;2022-08-06T09:53:02;18.70;1.00
7540;DHT22;3811;49.006;12.076;2022-08-06T09:55:31;18.70;1.00
7540;DHT22;3811;49.006;12.076;2022-08-06T09:58:00;18.80;1.00
7540;DHT22;3811;49.006;12.076;2022-08-06T10:00:28;18.90;1.00
7540;DHT22;3811;49.006;12.076;2022-08-06T10:02:57;19.00;1.00
7540;DHT22;3811;49.006;12.076;2022-08-06T10:05:25;19.00;1.00
7540;DHT22;3811;49.006;12.076;2022-08-06T10:08:04;19.20;1.00
7540;DHT22;3811;49.006;12.076;2022-08-06T10:10:40;19.20;99.90
7540;DHT22;3811;49.006;12.076;2022-08-06T10:13:14;19.40;99.90
7540;DHT22;3811;49.006;12.076;2022-08-06T10:15:43;20.00;99.90
7540;DHT22;3811;49.006;12.076;2022-08-06T10:21:01;20.80;99.90
7540;DHT22;3811;49.006;12.076;2022-08-06T10:23:30;20.60;99.90
7540;DHT22;3811;49.006;12.076;2022-08-06T10:25:59;20.50;99.90
7540;DHT22;3811;49.006;12.076;2022-08-06T10:28:27;21.20;99.90
7540;DHT22;3811;49.006;12.076;2022-08-06T10:33:24;21.90;99.90
7540;DHT22;3811;49.006;12.076;2022-08-06T10:36:01;22.10;99.90
7540;DHT22;3811;49.006;12.076;2022-08-06T10:38:33;22.10;99.90
7540;DHT22;3811;49.006;12.076;2022-08-06T10:41:07;21.70;99.90
7540;DHT22;3811;49.006;12.076;2022-08-06T10:43:37;21.60;99.90
7540;DHT22;3811;49.006;12.076;2022-08-06T10:46:08;21.40;99.90
7540;DHT22;3811;49.006;12.076;2022-08-06T10:48:36;21.40;99.90
7540;DHT22;3811;49.006;12.076;2022-08-06T10:51:04;21.50;99.90
7540;DHT22;3811;49.006;12.076;2022-08-06T10:53:33;22.00;99.90
7540;DHT22;3811;49.006;12.076;2022-08-06T10:58:30;22.00;99.90
7540;DHT22;3811;49.006;12.076;2022-08-06T11:01:04;22.20;99.90
7540;DHT22;3811;49.006;12.076;2022-08-06T11:03:44;22.00;99.90
7540;DHT22;3811;49.006;12.076;2022-08-06T11:06:36;22.40;99.90
7540;DHT22;3811;49.006;12.076;2022-08-06T11:09:24;22.60;99.90
7540;DHT22;3811;49.006;12.076;2022-08-06T11:12:06;22.70;1.00
7540;DHT22;3811;49.006;12.076;2022-08-06T11:14:37;22.80;1.00
7540;DHT22;3811;49.006;12.076;2022-08-06T11:17:06;22.90;1.00
7540;DHT22;3811;49.006;12.076;2022-08-06T11:19:39;23.30;1.00
7540;DHT22;3811;49.006;12.076;2022-08-06T11:22:06;22.80;1.00
7540;DHT22;3811;49.006;12.076;2022-08-06T11:24:33;22.50;1.00
7540;DHT22;3811;49.006;12.076;2022-08-06T11:27:47;22.30;1.00
7540;DHT22;3811;49.006;12.076;2022-08-06T11:30:14;22.80;1.00
7540;DHT22;3811;49.006;12.076;2022-08-06T11:32:48;23.00;1.00
7540;DHT22;3811;49.006;12.076;2022-08-06T11:35:41;23.20;1.00
7540;DHT22;3811;49.006;12.076;2022-08-06T11:38:11;23.30;1.00
7540;DHT22;3811;49.006;12.076;2022-08-06T11:40:59;23.60;1.00
7540;DHT22;3811;49.006;12.076;2022-08-06T11:43:45;23.70;1.00
7540;DHT22;3811;49.006;12.076;2022-08-06T11:46:20;23.80;1.00
7540;DHT22;3811;49.006;12.076;2022-08-06T11:49:18;23.70;1.00
7540;DHT22;3811;49.006;12.076;2022-08-06T11:51:51;23.80;1.00
7540;DHT22;3811;49.006;12.076;2022-08-06T11:54:20;23.90;1.00
7540;DHT22;3811;49.006;12.076;2022-08-06T11:57:22;23.70;1.00
7540;DHT22;3811;49.006;12.076;2022-08-06T12:00:09;23.30;1.00
7540;DHT22;3811;49.006;12.076;2022-08-06T12:02:58;22.90;1.00
7540;DHT22;3811;49.006;12.076;2022-08-06T12:05:37;23.10;1.00
7540;DHT22;3811;49.006;12.076;2022-08-06T12:08:20;23.40;1.00
7540;DHT22;3811;49.006;12.076;2022-08-06T12:13:56;23.40;1.00
7540;DHT22;3811;49.006;12.076;2022-08-06T12:16:36;23.20;1.00
7540;DHT22;3811;49.006;12.076;2022-08-06T12:19:06;23.50;1.00
7540;DHT22;3811;49.006;12.076;2022-08-06T12:26:35;23.80;1.00
7540;DHT22;3811;49.006;12.076;2022-08-06T12:29:06;24.10;1.00
7540;DHT22;3811;49.006;12.076;2022-08-06T12:31:36;24.30;1.00
7540;DHT22;3811;49.006;12.076;2022-08-06T12:34:04;24.40;1.00
7540;DHT22;3811;49.006;12.076;2022-08-06T12:36:33;24.80;1.00
7540;DHT22;3811;49.006;12.076;2022-08-06T12:39:14;24.80;1.00
7540;DHT22;3811;49.006;12.076;2022-08-06T12:41:41;24.90;1.00
7540;DHT22;3811;49.006;12.076;2022-08-06T12:44:10;25.00;1.00
7540;DHT22;3811;49.006;12.076;2022-08-06T12:46:37;25.00;1.00
7540;DHT22;3811;49.006;12.076;2022-08-06T12:51:35;25.30;1.00
7540;DHT22;3811;49.006;12.076;2022-08-06T12:54:05;25.40;1.00
7540;DHT22;3811;49.006;12.076;2022-08-06T12:56:37;25.40;1.00
7540;DHT22;3811;49.006;12.076;2022-08-06T12:59:08;25.40;1.00
7540;DHT22;3811;49.006;12.076;2022-08-06T13:01:36;25.60;1.00
7540;DHT22;3811;49.006;12.076;2022-08-06T13:04:07;25.60;1.00
7540;DHT22;3811;49.006;12.076;2022-08-06T13:06:39;25.60;1.00
7540;DHT22;3811;49.006;12.076;2022-08-06T13:14:12;25.90;99.90
7540;DHT22;3811;49.006;12.076;2022-08-06T13:16:41;25.90;99.90
7540;DHT22;3811;49.006;12.076;2022-08-06T13:19:12;25.80;99.90
7540;DHT22;3811;49.006;12.076;2022-08-06T13:26:47;26.10;99.90
7540;DHT22;3811;49.006;12.076;2022-08-06T13:29:16;26.10;99.90
7540;DHT22;3811;49.006;12.076;2022-08-06T13:31:45;26.20;99.90
7540;DHT22;3811;49.006;12.076;2022-08-06T13:34:14;26.40;99.90
7540;DHT22;3811;49.006;12.076;2022-08-06T13:36:52;26.30;99.90
7540;DHT22;3811;49.006;12.076;2022-08-06T13:39:22;26.40;99.90
7540;DHT22;3811;49.006;12.076;2022-08-06T13:42:05;26.70;99.90
7540;DHT22;3811;49.006;12.076;2022-08-06T13:44:35;26.90;99.90
7540;DHT22;3811;49.006;12.076;2022-08-06T13:47:04;26.90;99.90
7540;DHT22;3811;49.006;12.076;2022-08-06T13:49:31;26.90;99.90
7540;DHT22;3811;49.006;12.076;2022-08-06T13:52:01;26.90;99.90
7540;DHT22;3811;49.006;12.076;2022-08-06T13:54:29;26.90;99.90
7540;DHT22;3811;49.006;12.076;2022-08-06T13:59:26;27.00;99.90
7540;DHT22;3811;49.006;12.076;2022-08-06T14:01:56;27.20;99.90
7540;DHT22;3811;49.006;12.076;2022-08-06T14:04:24;27.30;99.90
7540;DHT22;3811;49.006;12.076;2022-08-06T14:06:54;27.50;99.90
7540;DHT22;3811;49.006;12.076;2022-08-06T14:09:22;27.60;99.90
7540;DHT22;3811;49.006;12.076;2022-08-06T14:11:51;27.50;99.90
7540;DHT22;3811;49.006;12.076;2022-08-06T14:14:19;27.60;99.90
7540;DHT22;3811;49.006;12.076;2022-08-06T14:16:47;27.80;99.90
7540;DHT22;3811;49.006;12.076;2022-08-06T14:19:14;28.10;99.90
7540;DHT22;3811;49.006;12.076;2022-08-06T14:29:04;28.60;99.90
7540;DHT22;3811;49.006;12.076;2022-08-06T14:34:00;28.60;99.90
7540;DHT22;3811;49.006;12.076;2022-08-06T14:36:27;28.70;99.90
7540;DHT22;3811;49.006;12.076;2022-08-06T14:38:55;28.80;99.90
7540;DHT22;3811;49.006;12.076;2022-08-06T14:41:23;28.70;99.90
7540;DHT22;3811;49.006;12.076;2022-08-06T14:44:08;28.80;99.90
7540;DHT22;3811;49.006;12.076;2022-08-06T14:46:53;28.70;99.90
7540;DHT22;3811;49.006;12.076;2022-08-06T14:49:22;28.80;99.90
7540;DHT22;3811;49.006;12.076;2022-08-06T14:51:49;29.20;99.90
7540;DHT22;3811;49.006;12.076;2022-08-06T14:54:17;29.40;99.90
7540;DHT22;3811;49.006;12.076;2022-08-06T14:59:13;29.20;99.90
7540;DHT22;3811;49.006;12.076;2022-08-06T15:04:08;28.60;99.90
7540;DHT22;3811;49.006;12.076;2022-08-06T15:06:36;28.70;99.90
7540;DHT22;3811;49.006;12.076;2022-08-06T15:09:03;28.80;99.90
7540;DHT22;3811;49.006;12.076;2022-08-06T15:13:58;29.00;99.90
7540;DHT22;3811;49.006;12.076;2022-08-06T15:18:52;29.30;99.90
7540;DHT22;3811;49.006;12.076;2022-08-06T15:21:19;29.30;99.90
7540;DHT22;3811;49.006;12.076;2022-08-06T15:23:48;29.20;99.90
7540;DHT22;3811;49.006;12.076;2022-08-06T15:26:15;28.40;99.90
7540;DHT22;3811;49.006;12.076;2022-08-06T15:28:42;27.70;99.90
7540;DHT22;3811;49.006;12.076;2022-08-06T15:33:39;27.50;99.90
7540;DHT22;3811;49.006;12.076;2022-08-06T15:38:33;26.90;99.90
7540;DHT22;3811;49.006;12.076;2022-08-06T15:41:02;27.00;99.90
7540;DHT22;3811;49.006;12.076;2022-08-06T15:45:58;26.50;99.90
7540;DHT22;3811;49.006;12.076;2022-08-06T15:48:26;26.40;99.90
7540;DHT22;3811;49.006;12.076;2022-08-06T15:50:53;26.40;99.90
7540;DHT22;3811;49.006;12.076;2022-08-06T15:58:18;26.30;99.90
7540;DHT22;3811;49.006;12.076;2022-08-06T16:00:45;26.30;99.90
7540;DHT22;3811;49.006;12.076;2022-08-06T16:03:13;26.20;99.90
7540;DHT22;3811;49.006;12.076;2022-08-06T16:05:41;26.00;99.90
7540;DHT22;3811;49.006;12.076;2022-08-06T16:08:10;25.90;99.90
7540;DHT22;3811;49.006;12.076;2022-08-06T16:10:41;25.60;99.90
7540;DHT22;3811;49.006;12.076;2022-08-06T16:13:08;25.60;99.90
7540;DHT22;3811;49.006;12.076;2022-08-06T16:20:39;25.20;99.90
7540;DHT22;3811;49.006;12.076;2022-08-06T16:28:03;24.60;99.90
7540;DHT22;3811;49.006;12.076;2022-08-06T16:32:58;24.50;99.90
7540;DHT22;3811;49.006;12.076;2022-08-06T16:35:26;24.50;99.90
7540;DHT22;3811;49.006;12.076;2022-08-06T16:40:23;24.40;99.90
7540;DHT22;3811;49.006;12.076;2022-08-06T16:42:52;24.40;99.90
7540;DHT22;3811;49.006;12.076;2022-08-06T16:50:16;24.30;99.90
7540;DHT22;3811;49.006;12.076;2022-08-06T17:00:09;23.90;99.90
7540;DHT22;3811;49.006;12.076;2022-08-06T17:05:05;23.80;99.90
7540;DHT22;3811;49.006;12.076;2022-08-06T17:07:35;23.80;99.90
7540;DHT22;3811;49.006;12.076;2022-08-06T17:10:02;23.70;99.90
7540;DHT22;3811;49.006;12.076;2022-08-06T17:12:30;23.70;99.90
7540;DHT22;3811;49.006;12.076;2022-08-06T17:17:25;23.60;99.90
7540;DHT22;3811;49.006;12.076;2022-08-06T17:24:48;23.50;99.90
7540;DHT22;3811;49.006;12.076;2022-08-06T17:27:16;23.40;99.90
7540;DHT22;3811;49.006;12.076;2022-08-06T17:29:44;23.40;99.90
7540;DHT22;3811;49.006;12.076;2022-08-06T17:42:03;23.10;99.90
7540;DHT22;3811;49.006;12.076;2022-08-06T17:54:23;22.70;99.90
7540;DHT22;3811;49.006;12.076;2022-08-06T17:59:19;22.50;99.90
7540;DHT22;3811;49.006;12.076;2022-08-06T18:01:47;22.50;99.90
7540;DHT22;3811;49.006;12.076;2022-08-06T18:04:15;22.60;99.90
7540;DHT22;3811;49.006;12.076;2022-08-06T18:06:42;22.50;99.90
7540;DHT22;3811;49.006;12.076;2022-08-06T18:09:13;22.40;99.90
7540;DHT22;3811;49.006;12.076;2022-08-06T18:14:08;22.40;99.90
7540;DHT22;3811;49.006;12.076;2022-08-06T18:19:05;22.30;99.90
7540;DHT22;3811;49.006;12.076;2022-08-06T18:21:33;22.10;99.90
7540;DHT22;3811;49.006;12.076;2022-08-06T18:31:22;21.90;99.90
7540;DHT22;3811;49.006;12.076;2022-08-06T18:38:45;21.70;99.90
7540;DHT22;3811;49.006;12.076;2022-08-06T18:51:03;21.50;99.90
7540;DHT22;3811;49.006;12.076;2022-08-06T18:58:28;21.30;99.90
7540;DHT22;3811;49.006;12.076;2022-08-06T19:00:55;21.10;99.90
7540;DHT22;3811;49.006;12.076;2022-08-06T19:05:50;21.00;99.90
7540;DHT22;3811;49.006;12.076;2022-08-06T19:08:19;20.90;99.90
7540;DHT22;3811;49.006;12.076;2022-08-06T19:20:36;20.40;99.90
7540;DHT22;3811;49.006;12.076;2022-08-06T19:23:03;20.40;99.90
7540;DHT22;3811;49.006;12.076;2022-08-06T19:25:32;20.40;99.90
7540;DHT22;3811;49.006;12.076;2022-08-06T19:28:16;20.40;99.90
7540;DHT22;3811;49.006;12.076;2022-08-06T19:30:49;20.40;99.90
7540;DHT22;3811;49.006;12.076;2022-08-06T19:33:20;20.30;99.90
7540;DHT22;3811;49.006;12.076;2022-08-06T19:40:44;20.20;99.90
7540;DHT22;3811;49.006;12.076;2022-08-06T19:43:14;20.10;99.90
7540;DHT22;3811;49.006;12.076;2022-08-06T19:45:45;20.10;99.90
7540;DHT22;3811;49.006;12.076;2022-08-06T19:48:13;20.00;99.90
7540;DHT22;3811;49.006;12.076;2022-08-06T19:55:35;19.70;99.90
7540;DHT22;3811;49.006;12.076;2022-08-06T20:00:36;19.60;99.90
7540;DHT22;3811;49.006;12.076;2022-08-06T20:03:03;19.50;99.90
7540;DHT22;3811;49.006;12.076;2022-08-06T20:05:30;19.40;99.90
7540;DHT22;3811;49.006;12.076;2022-08-06T20:07:57;19.40;99.90
7540;DHT22;3811;49.006;12.076;2022-08-06T20:15:27;19.10;1.00
7540;DHT22;3811;49.006;12.076;2022-08-06T20:20:23;19.00;1.00
7540;DHT22;3811;49.006;12.076;2022-08-06T20:30:13;18.70;1.00
7540;DHT22;3811;49.006;12.076;2022-08-06T20:35:12;18.70;1.00
7540;DHT22;3811;49.006;12.076;2022-08-06T20:40:10;18.70;1.00
7540;DHT22;3811;49.006;12.076;2022-08-06T20:45:09;18.60;1.00
7540;DHT22;3811;49.006;12.076;2022-08-06T20:50:08;18.50;1.00
7540;DHT22;3811;49.006;12.076;2022-08-06T20:52:36;18.40;1.00
7540;DHT22;3811;49.006;12.076;2022-08-06T20:55:05;18.30;1.00
7540;DHT22;3811;49.006;12.076;2022-08-06T21:00:08;18.10;1.00
7540;DHT22;3811;49.006;12.076;2022-08-06T21:05:08;18.00;1.00
7540;DHT22;3811;49.006;12.076;2022-08-06T21:07:36;17.80;1.00
7540;DHT22;3811;49.006;12.076;2022-08-06T21:10:05;18.30;1.00
7540;DHT22;3811;49.006;12.076;2022-08-06T21:15:07;17.70;1.00
7540;DHT22;3811;49.006;12.076;2022-08-06T21:17:35;17.70;1.00
7540;DHT22;3811;49.006;12.076;2022-08-06T21:20:03;17.60;1.00
7540;DHT22;3811;49.006;12.076;2022-08-06T21:22:31;17.50;1.00
7540;DHT22;3811;49.006;12.076;2022-08-06T21:29:56;17.30;1.00
7540;DHT22;3811;49.006;12.076;2022-08-06T21:39:48;17.30;1.00